Time;durP1;ratioP1;P1;durP2;ratioP2;P2;SDS_P1;SDS_P2;PMS_P1;PMS_P2;Temp;Humidity;BMP_temperature;BMP_pressure;BME280_temperature;BME280_humidity;BME280_pressure;Samples;Min_cycle;Max_cycle;Signal;HPM_P1;HPM_P2
2023/04/27 00:00:52;;;;;;;9.10;1.55;;;20.80;71.00;;;;;;4165556;28;20285;-50
2023/04/27 00:03:14;;;;;;;4.40;1.40;;;20.80;71.00;;;;;;4172069;28;20083;-43
2023/04/27 00:05:37;;;;;;;9.65;1.48;;;20.90;71.00;;;;;;4159701;28;20119;-48
2023/04/27 00:08:00;;;;;;;5.32;1.15;;;20.90;71.00;;;;;;4167809;28;20047;-46
2023/04/27 00:10:22;;;;;;;3.13;1.38;;;20.90;71.00;;;;;;4169412;28;20140;-46
2023/04/27 00:12:45;;;;;;;3.13;1.23;;;20.90;70.90;;;;;;4167085;28;20056;-47
2023/04/27 00:15:08;;;;;;;2.85;1.05;;;21.00;70.90;;;;;;4167594;28;20449;-41
2023/04/27 00:17:31;;;;;;;6.70;1.00;;;21.00;70.90;;;;;;4175520;28;20451;-45
2023/04/27 00:19:53;;;;;;;2.60;0.85;;;21.00;70.90;;;;;;4166000;28;20394;-47
2023/04/27 00:22:16;;;;;;;2.78;1.10;;;21.00;71.00;;;;;;4170296;28;20579;-47
2023/04/27 00:24:38;;;;;;;2.22;1.30;;;21.00;70.90;;;;;;4172028;28;20420;-50
2023/04/27 00:27:01;;;;;;;4.63;0.93;;;21.10;70.70;;;;;;4170932;28;20045;-43
2023/04/27 00:29:24;;;;;;;2.72;1.55;;;21.20;70.60;;;;;;4170218;28;20355;-49
2023/04/27 00:31:46;;;;;;;3.30;0.90;;;21.20;70.50;;;;;;4165129;28;20060;-42
2023/04/27 00:34:09;;;;;;;1.83;0.90;;;21.30;70.30;;;;;;4173403;28;20401;-47
2023/04/27 00:36:34;;;;;;;2.25;0.80;;;21.30;70.20;;;;;;4171047;28;20037;-46
2023/04/27 00:38:56;;;;;;;2.70;0.90;;;21.30;70.20;;;;;;4156778;28;20041;-44
2023/04/27 00:41:18;;;;;;;2.00;0.90;;;21.30;70.20;;;;;;4167859;28;20039;-49
2023/04/27 00:43:45;;;;;;;4.57;1.00;;;21.40;70.00;;;;;;4172477;28;20048;-46
2023/04/27 00:46:07;;;;;;;1.63;0.98;;;21.40;71.50;;;;;;4168534;28;20473;-51
2023/04/27 00:48:30;;;;;;;4.32;1.60;;;21.40;70.70;;;;;;4171513;28;20069;-52
2023/04/27 00:50:52;;;;;;;6.15;2.25;;;21.40;70.80;;;;;;4167652;28;20043;-51
2023/04/27 00:53:15;;;;;;;2.63;1.42;;;21.50;71.80;;;;;;4169502;28;20041;-45
2023/04/27 00:55:38;;;;;;;2.20;1.03;;;21.60;71.20;;;;;;4173248;28;20421;-44
2023/04/27 00:58:00;;;;;;;4.00;1.45;;;21.60;71.00;;;;;;4171322;28;20435;-43
2023/04/27 01:00:23;;;;;;;2.30;0.90;;;21.60;70.90;;;;;;4174136;28;20382;-41
2023/04/27 01:02:46;;;;;;;2.58;1.10;;;21.70;71.00;;;;;;4166899;28;20037;-48
2023/04/27 01:05:09;;;;;;;1.77;0.93;;;21.70;70.80;;;;;;4170696;28;20456;-43
2023/04/27 01:07:32;;;;;;;2.08;1.10;;;21.70;70.70;;;;;;4173147;28;20033;-42
2023/04/27 01:09:54;;;;;;;1.75;1.02;;;21.70;70.50;;;;;;4154961;28;20527;-41
2023/04/27 01:12:16;;;;;;;3.80;0.90;;;21.80;70.40;;;;;;4172902;28;20529;-44
2023/04/27 01:14:39;;;;;;;2.63;0.70;;;21.80;70.40;;;;;;4172160;28;20049;-47
2023/04/27 01:17:01;;;;;;;2.22;0.77;;;21.90;70.20;;;;;;4168379;28;20503;-48
2023/04/27 01:19:24;;;;;;;1.92;0.85;;;21.90;70.10;;;;;;4171626;28;20032;-45
2023/04/27 01:21:46;;;;;;;1.33;0.80;;;21.90;69.90;;;;;;4168972;28;20048;-47
2023/04/27 01:24:09;;;;;;;1.38;0.68;;;21.90;69.80;;;;;;4173583;28;20458;-48
2023/04/27 01:26:31;;;;;;;2.45;0.60;;;22.00;69.80;;;;;;4165100;28;20043;-48
2023/04/27 01:28:54;;;;;;;5.05;1.08;;;22.00;69.50;;;;;;4176544;28;20028;-44
2023/04/27 01:31:16;;;;;;;1.73;0.95;;;22.00;69.40;;;;;;4175049;28;20064;-46
2023/04/27 01:33:39;;;;;;;1.13;0.47;;;22.10;69.30;;;;;;4175101;28;20033;-44
2023/04/27 01:36:02;;;;;;;1.47;0.60;;;22.10;69.30;;;;;;4172090;28;20397;-43
2023/04/27 01:38:24;;;;;;;2.60;0.88;;;22.10;69.30;;;;;;4166568;28;20029;-42
2023/04/27 01:40:47;;;;;;;1.58;0.65;;;22.10;69.20;;;;;;4174049;28;20049;-44
2023/04/27 01:43:09;;;;;;;1.25;0.70;;;22.10;69.10;;;;;;4173261;28;20554;-41
2023/04/27 01:45:32;;;;;;;0.95;0.70;;;22.20;69.10;;;;;;4173789;28;20476;-43
2023/04/27 01:47:54;;;;;;;2.88;0.90;;;22.20;68.90;;;;;;4166908;28;20540;-41
2023/04/27 01:50:17;;;;;;;2.50;0.73;;;22.20;68.90;;;;;;4169023;28;20040;-41
2023/04/27 01:52:39;;;;;;;1.88;0.60;;;22.30;68.90;;;;;;4166204;28;20390;-43
2023/04/27 01:55:05;;;;;;;4.55;0.93;;;22.30;68.80;;;;;;4171879;28;20064;-40
2023/04/27 01:57:28;;;;;;;3.97;0.65;;;22.30;68.60;;;;;;4166504;28;20116;-44
2023/04/27 01:59:50;;;;;;;2.28;0.60;;;22.40;68.50;;;;;;4164986;28;20497;-48
2023/04/27 02:02:12;;;;;;;2.20;0.93;;;22.40;68.40;;;;;;4170744;28;20493;-45
2023/04/27 02:04:35;;;;;;;1.42;0.55;;;22.40;68.50;;;;;;4172347;28;20040;-44
2023/04/27 02:06:57;;;;;;;1.27;0.70;;;22.40;68.50;;;;;;4173913;28;20045;-49
2023/04/27 02:09:20;;;;;;;1.67;0.60;;;22.40;68.50;;;;;;4168839;28;20036;-49
2023/04/27 02:11:42;;;;;;;0.43;0.30;;;22.40;68.50;;;;;;4172859;28;20469;-42
2023/04/27 02:14:05;;;;;;;1.52;0.40;;;22.40;68.40;;;;;;4166630;28;20037;-47
2023/04/27 02:16:27;;;;;;;0.57;0.30;;;22.50;68.20;;;;;;4158079;28;20696;-42
2023/04/27 02:18:52;;;;;;;1.75;0.65;;;22.50;68.10;;;;;;4153302;28;20037;-47
2023/04/27 02:21:15;;;;;;;2.10;0.52;;;22.60;68.10;;;;;;4169830;28;20053;-47
2023/04/27 02:23:37;;;;;;;0.63;0.40;;;22.60;68.20;;;;;;4167530;28;20032;-44
2023/04/27 02:25:59;;;;;;;1.10;0.50;;;22.60;68.10;;;;;;4170803;28;20044;-43
2023/04/27 02:28:22;;;;;;;1.85;0.50;;;22.60;68.10;;;;;;4174643;28;20048;-48
2023/04/27 02:30:44;;;;;;;0.93;0.60;;;22.70;67.90;;;;;;4169349;28;20177;-42
2023/04/27 02:33:07;;;;;;;1.90;1.05;;;22.70;67.80;;;;;;4173950;28;20120;-42
2023/04/27 02:35:31;;;;;;;0.70;0.38;;;22.70;67.80;;;;;;4175589;28;20078;-45
2023/04/27 02:37:53;;;;;;;0.57;0.50;;;22.70;67.80;;;;;;4168861;28;20485;-44
2023/04/27 02:40:16;;;;;;;3.53;0.65;;;22.70;67.90;;;;;;4168361;28;20037;-46
2023/04/27 02:42:38;;;;;;;3.20;1.05;;;22.70;67.90;;;;;;4168011;28;20095;-42
2023/04/27 02:45:01;;;;;;;1.08;0.50;;;22.80;67.80;;;;;;4150165;28;20767;-43
2023/04/27 02:47:23;;;;;;;1.98;0.52;;;22.80;67.70;;;;;;4162922;28;20471;-44
2023/04/27 02:49:46;;;;;;;0.80;0.40;;;22.80;67.70;;;;;;4166717;28;20033;-44
2023/04/27 02:52:08;;;;;;;0.90;0.57;;;22.90;67.70;;;;;;4171201;28;20117;-43
2023/04/27 02:54:31;;;;;;;2.15;0.73;;;22.90;67.60;;;;;;4165185;28;20052;-44
2023/04/27 02:56:54;;;;;;;1.85;0.70;;;22.90;67.90;;;;;;4171448;28;20119;-45
2023/04/27 02:59:16;;;;;;;2.40;0.80;;;23.00;68.20;;;;;;4169660;28;20104;-44
2023/04/27 03:01:39;;;;;;;3.17;1.00;;;23.00;68.10;;;;;;4161959;28;20038;-49
2023/04/27 03:04:02;;;;;;;4.78;1.17;;;23.00;67.90;;;;;;4168621;28;20071;-46
2023/04/27 03:06:25;;;;;;;3.53;0.55;;;23.00;67.90;;;;;;4166398;28;20099;-43
2023/04/27 03:08:47;;;;;;;3.20;0.77;;;23.00;67.80;;;;;;4166593;28;20111;-42
2023/04/27 03:11:11;;;;;;;4.75;0.50;;;23.00;67.70;;;;;;4154104;28;20056;-45
2023/04/27 03:13:40;;;;;;;4.47;0.90;;;23.00;67.80;;;;;;4171070;28;20523;-41
2023/04/27 03:16:02;;;;;;;3.35;1.13;;;23.10;67.60;;;;;;4169878;28;20047;-43
2023/04/27 03:18:25;;;;;;;3.47;1.40;;;23.10;67.80;;;;;;4170162;28;20052;-43
2023/04/27 03:20:48;;;;;;;7.63;0.85;;;23.10;68.40;;;;;;4168408;28;20105;-42
2023/04/27 03:23:10;;;;;;;3.92;0.85;;;23.10;68.60;;;;;;4166892;28;20053;-42
2023/04/27 03:25:33;;;;;;;6.63;0.80;;;23.10;68.60;;;;;;4172140;28;20592;-42
2023/04/27 03:27:55;;;;;;;1.42;0.55;;;23.10;68.60;;;;;;4169966;28;20038;-43
2023/04/27 03:30:18;;;;;;;19.75;2.42;;;23.20;68.60;;;;;;4157359;28;20108;-43
2023/04/27 03:32:40;;;;;;;47.60;5.53;;;23.30;68.60;;;;;;4164382;28;20037;-43
2023/04/27 03:35:03;;;;;;;30.45;4.22;;;23.30;68.50;;;;;;4166312;28;20053;-42
2023/04/27 03:37:26;;;;;;;30.83;3.90;;;23.30;68.60;;;;;;4164508;28;20057;-42
2023/04/27 03:39:48;;;;;;;24.98;2.60;;;23.40;68.80;;;;;;4164894;28;20044;-46
2023/04/27 03:42:10;;;;;;;17.67;2.40;;;23.40;68.70;;;;;;4165840;28;20049;-42
2023/04/27 03:44:35;;;;;;;14.13;1.88;;;23.40;68.60;;;;;;4169790;28;20131;-44
2023/04/27 03:46:57;;;;;;;10.35;1.92;;;23.40;68.70;;;;;;4155791;28;20304;-40
2023/04/27 03:49:20;;;;;;;8.95;1.40;;;23.50;68.70;;;;;;4169327;28;20044;-42
2023/04/27 03:51:42;;;;;;;14.55;1.70;;;23.50;68.70;;;;;;4171155;28;20095;-45
2023/04/27 03:54:05;;;;;;;4.70;0.93;;;23.60;68.60;;;;;;4166792;28;20586;-46
2023/04/27 03:56:27;;;;;;;18.02;1.25;;;23.60;68.50;;;;;;4167816;28;20041;-42
2023/04/27 03:58:50;;;;;;;3.22;1.15;;;23.70;68.40;;;;;;4166635;28;20550;-43
2023/04/27 04:01:13;;;;;;;5.63;1.00;;;23.80;68.30;;;;;;4162914;28;20064;-43
2023/04/27 04:03:36;;;;;;;5.28;2.00;;;23.80;68.00;;;;;;4169494;28;20059;-41
2023/04/27 04:05:58;;;;;;;5.40;0.95;;;24.00;68.00;;;;;;4150287;28;20461;-45
2023/04/27 04:08:21;;;;;;;9.85;3.00;;;24.00;67.70;;;;;;4154597;28;20037;-44
2023/04/27 04:10:43;;;;;;;19.13;1.90;;;24.10;67.70;;;;;;4159151;28;20135;-43
2023/04/27 04:13:06;;;;;;;4.53;1.20;;;24.10;67.70;;;;;;4159358;28;20029;-43
2023/04/27 04:15:28;;;;;;;5.65;0.98;;;24.10;67.50;;;;;;4155897;28;20056;-42
2023/04/27 04:17:51;;;;;;;5.65;1.55;;;24.20;67.40;;;;;;4166018;28;20041;-42
2023/04/27 04:20:14;;;;;;;8.05;1.35;;;24.30;67.20;;;;;;4167872;28;20052;-42
2023/04/27 04:22:37;;;;;;;6.95;0.95;;;24.40;67.10;;;;;;4165745;28;20033;-42
2023/04/27 04:25:00;;;;;;;5.53;1.00;;;24.50;67.20;;;;;;4164074;28;20056;-42
2023/04/27 04:27:22;;;;;;;7.40;1.35;;;24.50;67.00;;;;;;4156366;28;20533;-42
2023/04/27 04:29:45;;;;;;;7.85;0.93;;;24.60;66.90;;;;;;4172340;28;20076;-42
2023/04/27 04:32:08;;;;;;;4.60;0.73;;;24.60;66.80;;;;;;4173537;28;20040;-43
2023/04/27 04:34:30;;;;;;;5.68;1.00;;;24.70;66.80;;;;;;4175906;28;20059;-49
2023/04/27 04:36:56;;;;;;;5.30;1.30;;;24.70;66.80;;;;;;4163643;28;20121;-43
2023/04/27 04:39:21;;;;;;;3.25;1.02;;;24.80;66.70;;;;;;4164952;28;20056;-47
2023/04/27 04:41:44;;;;;;;7.20;1.20;;;24.80;66.70;;;;;;4155840;28;20140;-47
2023/04/27 04:44:06;;;;;;;4.68;0.95;;;24.80;66.70;;;;;;4163009;28;20045;-46
2023/04/27 04:46:29;;;;;;;6.10;0.98;;;24.80;66.60;;;;;;4167072;28;20029;-48
2023/04/27 04:48:52;;;;;;;4.25;1.63;;;24.80;66.20;;;;;;4160457;28;20099;-43
2023/04/27 04:51:14;;;;;;;3.15;1.13;;;24.80;66.10;;;;;;4164195;28;20037;-45
2023/04/27 04:53:37;;;;;;;5.28;0.70;;;24.80;66.20;;;;;;4163831;28;20152;-48
2023/04/27 04:56:09;;;;;;;4.80;1.03;;;24.80;66.10;;;;;;4166642;28;20124;-46
2023/04/27 04:58:32;;;;;;;5.28;1.17;;;24.80;66.00;;;;;;4169838;28;20328;-45
2023/04/27 05:00:54;;;;;;;6.30;1.08;;;24.80;66.00;;;;;;4170102;28;20045;-49
2023/04/27 05:03:16;;;;;;;5.32;1.00;;;24.90;66.00;;;;;;4172016;28;20492;-52
2023/04/27 05:05:39;;;;;;;5.75;1.15;;;25.00;65.90;;;;;;4168698;28;20028;-45
2023/04/27 05:08:02;;;;;;;0.95;0.43;;;25.10;65.80;;;;;;4168000;28;20444;-44
2023/04/27 05:10:24;;;;;;;3.80;0.80;;;25.10;65.70;;;;;;4170254;28;20052;-44
2023/04/27 05:12:46;;;;;;;5.10;0.68;;;25.20;65.50;;;;;;4160875;28;20120;-50
2023/04/27 05:15:09;;;;;;;12.65;1.65;;;25.30;65.40;;;;;;4161917;28;20508;-47
2023/04/27 05:17:32;;;;;;;4.00;0.80;;;25.40;65.20;;;;;;4168763;28;20186;-48
2023/04/27 05:19:54;;;;;;;3.35;0.70;;;25.50;65.10;;;;;;4166926;28;20045;-46
2023/04/27 05:22:16;;;;;;;2.53;0.68;;;25.60;65.00;;;;;;4174249;28;20037;-54
2023/04/27 05:24:39;;;;;;;6.70;1.10;;;25.60;65.00;;;;;;4171987;28;20049;-43
2023/04/27 05:27:02;;;;;;;2.40;0.85;;;25.60;64.80;;;;;;4172291;28;20087;-47
2023/04/27 05:29:26;;;;;;;4.70;0.90;;;25.70;64.10;;;;;;4164378;28;20046;-48
2023/04/27 05:31:48;;;;;;;4.28;0.57;;;25.70;63.00;;;;;;4165839;28;20045;-50
2023/04/27 05:34:12;;;;;;;1.95;0.80;;;25.70;62.40;;;;;;4171479;28;20114;-54
2023/04/27 05:36:34;;;;;;;2.75;0.80;;;25.70;62.20;;;;;;4163443;28;20045;-51
2023/04/27 05:38:57;;;;;;;2.00;0.60;;;25.70;62.10;;;;;;4167702;28;20341;-50
2023/04/27 05:41:19;;;;;;;1.98;0.70;;;25.70;62.20;;;;;;4171720;28;20079;-46
2023/04/27 05:43:42;;;;;;;2.97;0.80;;;25.70;62.50;;;;;;4173657;28;20124;-51
2023/04/27 05:46:05;;;;;;;1.88;0.57;;;25.80;62.80;;;;;;4170727;28;20053;-49
2023/04/27 05:48:28;;;;;;;2.35;0.75;;;25.80;62.90;;;;;;4170531;28;20481;-46
2023/04/27 05:50:58;;;;;;;4.20;1.25;;;25.80;62.90;;;;;;4171306;28;20052;-48
2023/04/27 05:53:20;;;;;;;12.23;1.33;;;25.90;63.00;;;;;;4176017;28;20044;-49
2023/04/27 05:55:43;;;;;;;8.52;1.42;;;25.90;63.00;;;;;;4178286;28;20096;-45
2023/04/27 05:58:05;;;;;;;5.18;1.13;;;25.90;63.00;;;;;;4172829;28;20045;-50
2023/04/27 06:00:28;;;;;;;3.40;0.80;;;26.00;63.00;;;;;;4170533;28;20041;-50
2023/04/27 06:02:51;;;;;;;6.15;1.00;;;25.90;63.10;;;;;;4152771;28;20037;-45
2023/04/27 06:05:13;;;;;;;2.53;0.80;;;25.80;63.30;;;;;;4174258;28;20606;-45
2023/04/27 06:07:36;;;;;;;2.38;0.40;;;25.90;63.50;;;;;;4164761;28;20045;-44
2023/04/27 06:09:59;;;;;;;2.43;0.70;;;25.90;63.50;;;;;;4162875;28;20148;-53
2023/04/27 06:12:21;;;;;;;3.95;0.73;;;25.90;63.80;;;;;;4170002;28;20060;-45
2023/04/27 06:14:43;;;;;;;4.07;0.85;;;26.00;64.00;;;;;;4165892;28;20044;-50
2023/04/27 06:17:06;;;;;;;4.15;1.20;;;26.10;63.60;;;;;;4162616;28;20044;-44
2023/04/27 06:19:28;;;;;;;5.80;1.02;;;26.10;63.50;;;;;;4163706;28;20049;-51
2023/04/27 06:21:51;;;;;;;4.90;0.93;;;26.10;63.30;;;;;;4172597;28;20060;-48
2023/04/27 06:24:13;;;;;;;3.65;0.68;;;26.00;63.40;;;;;;4162195;28;20185;-49
2023/04/27 06:26:36;;;;;;;7.28;1.15;;;26.00;63.40;;;;;;4176001;28;20378;-50
2023/04/27 06:28:58;;;;;;;2.47;0.80;;;26.00;63.50;;;;;;4160671;28;20064;-52
2023/04/27 06:31:21;;;;;;;6.40;0.98;;;26.00;63.50;;;;;;4173201;28;20060;-49
2023/04/27 06:33:43;;;;;;;1.90;0.70;;;25.90;63.60;;;;;;4175998;28;20041;-47
2023/04/27 06:36:06;;;;;;;5.35;0.63;;;25.90;63.50;;;;;;4167260;28;20416;-45
2023/04/27 06:38:28;;;;;;;4.18;0.75;;;25.90;63.70;;;;;;4161771;28;20033;-42
2023/04/27 06:40:52;;;;;;;2.47;0.70;;;25.90;63.80;;;;;;4151185;28;20029;-44
2023/04/27 06:43:14;;;;;;;5.75;1.08;;;26.00;63.90;;;;;;4170423;28;20503;-44
2023/04/27 06:45:36;;;;;;;4.18;0.63;;;26.00;63.50;;;;;;4173090;28;20049;-52
2023/04/27 06:47:59;;;;;;;4.07;0.80;;;26.20;63.30;;;;;;4172365;28;20123;-47
2023/04/27 06:50:21;;;;;;;3.55;0.90;;;26.30;62.90;;;;;;4168625;28;20186;-52
2023/04/27 06:52:44;;;;;;;3.30;0.73;;;26.40;62.50;;;;;;4155778;28;20493;-45
2023/04/27 06:55:07;;;;;;;9.82;1.42;;;26.40;62.30;;;;;;4156863;28;20106;-49
2023/04/27 06:57:30;;;;;;;2.83;0.75;;;26.50;62.10;;;;;;4173309;28;20029;-49
2023/04/27 06:59:52;;;;;;;2.13;0.68;;;26.40;62.20;;;;;;4166367;28;20450;-47
2023/04/27 07:02:15;;;;;;;1.70;0.50;;;26.20;62.40;;;;;;4164657;28;20030;-47
2023/04/27 07:04:37;;;;;;;4.45;2.05;;;26.20;62.60;;;;;;4171151;28;20045;-54
2023/04/27 07:06:59;;;;;;;4.10;0.90;;;26.10;63.10;;;;;;4156515;28;20038;-47
2023/04/27 07:09:22;;;;;;;2.08;0.40;;;26.00;63.50;;;;;;4164878;28;20546;-45
2023/04/27 07:11:45;;;;;;;1.63;0.50;;;25.90;64.30;;;;;;4158441;28;20719;-43
2023/04/27 07:14:07;;;;;;;3.33;0.70;;;25.90;63.90;;;;;;4181237;28;20048;-45
2023/04/27 07:16:29;;;;;;;0.75;0.40;;;25.80;63.90;;;;;;4167534;28;20048;-48
2023/04/27 07:18:52;;;;;;;3.17;0.65;;;25.80;64.10;;;;;;4175741;28;20033;-49
2023/04/27 07:21:14;;;;;;;3.15;1.15;;;25.80;64.20;;;;;;4162192;28;20045;-49
2023/04/27 07:23:38;;;;;;;1.30;0.70;;;25.70;64.40;;;;;;4173856;28;20036;-48
2023/04/27 07:26:01;;;;;;;1.90;0.50;;;25.70;64.50;;;;;;4166633;28;20043;-48
2023/04/27 07:28:24;;;;;;;2.60;0.83;;;25.60;64.50;;;;;;4155987;28;20052;-46
2023/04/27 07:30:46;;;;;;;1.50;0.50;;;25.60;64.60;;;;;;4172953;28;20080;-47
2023/04/27 07:33:09;;;;;;;1.23;0.45;;;25.60;64.60;;;;;;4170900;28;20032;-50
2023/04/27 07:35:32;;;;;;;1.83;0.73;;;25.60;64.70;;;;;;4171404;28;20140;-51
2023/04/27 07:37:55;;;;;;;2.97;0.80;;;25.50;64.60;;;;;;4165105;28;20432;-49
2023/04/27 07:40:17;;;;;;;2.55;0.80;;;25.50;64.70;;;;;;4177391;28;20040;-43
2023/04/27 07:42:40;;;;;;;2.53;0.95;;;25.50;64.80;;;;;;4151675;28;20045;-48
2023/04/27 07:45:03;;;;;;;3.10;1.50;;;25.50;65.00;;;;;;4165588;28;20548;-43
2023/04/27 07:47:26;;;;;;;2.67;1.23;;;25.40;65.00;;;;;;4154052;28;20576;-49
2023/04/27 07:49:48;;;;;;;6.05;1.52;;;25.40;65.10;;;;;;4147531;28;20436;-45
2023/04/27 07:52:11;;;;;;;5.70;2.17;;;25.40;65.10;;;;;;4167414;28;20032;-52
2023/04/27 07:54:34;;;;;;;5.13;2.28;;;25.40;64.90;;;;;;4166829;28;20076;-49
2023/04/27 07:56:58;;;;;;;6.30;1.67;;;25.40;64.90;;;;;;4171937;28;20090;-49
2023/04/27 07:59:21;;;;;;;14.75;3.13;;;25.40;65.00;;;;;;4166399;28;20116;-46
2023/04/27 08:01:43;;;;;;;4.75;2.00;;;25.40;64.80;;;;;;4170273;28;20057;-44
2023/04/27 08:04:06;;;;;;;4.00;2.00;;;25.30;64.70;;;;;;4168891;28;20092;-43
2023/04/27 08:06:28;;;;;;;3.67;1.80;;;25.30;64.70;;;;;;4170336;28;20032;-46
2023/04/27 08:08:51;;;;;;;3.40;1.80;;;25.30;64.80;;;;;;4168147;28;20310;-47
2023/04/27 08:11:14;;;;;;;4.30;2.05;;;25.30;65.10;;;;;;4168602;28;20032;-49
2023/04/27 08:13:37;;;;;;;4.70;1.92;;;25.30;65.30;;;;;;4167634;28;20310;-53
2023/04/27 08:15:59;;;;;;;4.18;1.95;;;25.30;65.30;;;;;;4166108;28;20045;-47
2023/04/27 08:18:21;;;;;;;4.63;1.80;;;25.30;65.30;;;;;;4163970;28;20097;-45
2023/04/27 08:20:44;;;;;;;4.70;2.17;;;25.30;65.40;;;;;;4155259;28;20060;-45
2023/04/27 08:23:06;;;;;;;3.58;1.80;;;25.30;65.50;;;;;;4162680;28;20471;-53
2023/04/27 08:25:29;;;;;;;3.20;1.70;;;25.30;65.50;;;;;;4154335;28;20279;-50
2023/04/27 08:27:51;;;;;;;4.40;1.80;;;25.30;65.50;;;;;;4151408;28;20049;-48
2023/04/27 08:30:14;;;;;;;3.75;1.48;;;25.30;65.60;;;;;;4164523;28;20049;-50
2023/04/27 08:32:36;;;;;;;7.88;1.80;;;25.30;65.60;;;;;;4171145;28;20040;-49
2023/04/27 08:34:59;;;;;;;7.15;2.00;;;25.30;65.70;;;;;;4170672;28;20516;-48
2023/04/27 08:37:21;;;;;;;4.45;1.67;;;25.30;66.10;;;;;;4166239;28;20035;-47
2023/04/27 08:39:44;;;;;;;3.55;1.60;;;25.30;66.10;;;;;;4160482;28;20511;-50
2023/04/27 08:42:13;;;;;;;3.05;1.80;;;25.30;66.00;;;;;;4165976;28;20036;-49
2023/04/27 08:44:39;;;;;;;5.72;2.25;;;25.30;66.30;;;;;;4170106;28;20476;-47
2023/04/27 08:47:04;;;;;;;6.97;2.20;;;25.30;66.00;;;;;;4172725;28;20112;-50
2023/04/27 08:49:26;;;;;;;4.55;1.63;;;25.40;66.10;;;;;;4168804;28;20083;-50
2023/04/27 08:51:49;;;;;;;4.53;1.80;;;25.30;66.00;;;;;;4166436;28;20033;-50
2023/04/27 08:54:11;;;;;;;3.95;1.50;;;25.30;66.10;;;;;;4172416;28;20049;-46
2023/04/27 08:56:34;;;;;;;3.97;1.20;;;25.30;66.10;;;;;;4170618;28;20067;-53
2023/04/27 08:58:58;;;;;;;6.47;1.98;;;25.30;66.00;;;;;;4167224;28;20036;-51
2023/04/27 09:01:20;;;;;;;;;;;25.30;65.90;;;;;;4170958;28;20041;-59
2023/04/27 09:03:45;;;;;;;8.45;1.70;;;25.30;65.70;;;;;;4165969;28;20549;-50
2023/04/27 09:06:08;;;;;;;11.02;1.45;;;25.30;65.90;;;;;;4155259;28;20026;-50
2023/04/27 09:08:50;;;;;;;3.80;1.30;;;25.30;66.00;;;;;;4165551;28;20043;-45
2023/04/27 09:11:28;;;;;;;5.15;1.30;;;25.30;66.10;;;;;;4170996;28;20029;-54
2023/04/27 09:13:50;;;;;;;5.57;2.00;;;25.30;66.50;;;;;;4171733;28;20037;-51
2023/04/27 09:16:13;;;;;;;5.55;1.98;;;25.30;65.00;;;;;;4164372;28;20068;-57
2023/04/27 09:18:36;;;;;;;4.95;2.28;;;25.20;64.70;;;;;;4166472;28;20465;-46
2023/04/27 09:21:00;;;;;;;5.25;2.38;;;25.20;64.40;;;;;;4163253;28;20113;-56
2023/04/27 09:23:34;;;;;;;2.80;1.75;;;25.20;64.70;;;;;;4176950;28;20039;-47
2023/04/27 09:26:04;;;;;;;5.60;1.80;;;25.20;64.90;;;;;;4168816;28;20052;-49
2023/04/27 09:28:28;;;;;;;3.58;1.50;;;25.20;64.50;;;;;;4170095;28;20036;-47
2023/04/27 09:30:56;;;;;;;;;;;25.20;64.90;;;;;;4173243;28;20045;-45
2023/04/27 09:33:27;;;;;;;3.83;1.70;;;25.20;65.00;;;;;;4168047;28;19916;-45
2023/04/27 09:35:50;;;;;;;3.58;1.90;;;25.20;65.20;;;;;;4156202;28;20045;-53
2023/04/27 09:38:13;;;;;;;5.82;1.55;;;25.10;65.30;;;;;;4160836;28;20037;-52
2023/04/27 09:40:39;;;;;;;4.18;1.58;;;25.10;65.30;;;;;;4164025;28;20048;-51
2023/04/27 09:43:01;;;;;;;10.88;1.48;;;25.20;65.40;;;;;;4164094;28;20094;-62
2023/04/27 09:45:24;;;;;;;7.38;1.70;;;25.10;65.60;;;;;;4150942;28;20049;-54
2023/04/27 09:47:47;;;;;;;4.32;1.40;;;25.10;65.60;;;;;;4165653;28;20037;-55
2023/04/27 09:50:15;;;;;;;2.92;1.38;;;25.10;65.60;;;;;;4163919;28;20047;-51
2023/04/27 09:52:37;;;;;;;3.05;1.40;;;25.10;65.60;;;;;;4166445;28;20037;-56
2023/04/27 09:55:01;;;;;;;3.30;1.17;;;25.10;65.70;;;;;;4153707;28;20169;-59
2023/04/27 09:57:53;;;;;;;4.05;1.17;;;25.10;65.80;;;;;;4168245;28;20036;-56
2023/04/27 10:00:38;;;;;;;5.85;1.55;;;25.10;65.80;;;;;;4169543;28;20048;-55
2023/04/27 10:03:15;;;;;;;4.82;1.35;;;25.10;65.90;;;;;;4161621;28;20536;-57
2023/04/27 10:05:57;;;;;;;6.82;1.38;;;25.10;66.10;;;;;;4164533;28;20037;-53
2023/04/27 10:08:21;;;;;;;6.22;1.33;;;25.10;66.30;;;;;;4128120;28;20115;-51
2023/04/27 10:10:48;;;;;;;9.50;1.08;;;25.10;66.30;;;;;;4164172;28;20144;-45
2023/04/27 10:13:21;;;;;;;4.68;0.98;;;25.10;66.30;;;;;;4166445;28;20033;-48
2023/04/27 10:15:44;;;;;;;3.38;1.13;;;25.10;66.30;;;;;;4154761;28;20049;-46
2023/04/27 10:18:07;;;;;;;2.65;1.05;;;25.10;66.20;;;;;;4163449;28;20040;-52
2023/04/27 10:20:32;;;;;;;2.45;0.95;;;25.10;66.20;;;;;;4168096;28;20045;-53
2023/04/27 10:22:55;;;;;;;2.83;1.00;;;25.10;66.50;;;;;;4151927;28;20040;-50
2023/04/27 10:25:26;;;;;;;4.32;1.10;;;25.10;66.00;;;;;;4166407;28;20040;-48
2023/04/27 10:27:54;;;;;;;2.75;0.90;;;25.10;65.90;;;;;;4160344;28;20328;-51
2023/04/27 10:30:18;;;;;;;1.10;0.75;;;25.10;66.00;;;;;;4164126;28;20088;-53
2023/04/27 10:32:56;;;;;;;2.63;0.98;;;25.10;66.00;;;;;;4166740;28;20045;-54
2023/04/27 10:35:20;;;;;;;2.83;0.93;;;25.10;66.00;;;;;;4161238;28;20077;-53
2023/04/27 10:37:43;;;;;;;2.78;1.45;;;25.10;66.00;;;;;;4162346;28;20037;-51
2023/04/27 10:40:16;;;;;;;3.63;1.10;;;25.10;66.00;;;;;;4165121;28;20044;-51
2023/04/27 10:42:38;;;;;;;1.95;0.82;;;25.10;66.10;;;;;;4165877;28;20301;-51
2023/04/27 10:45:01;;;;;;;2.25;0.90;;;25.10;66.20;;;;;;4160495;28;20041;-52
2023/04/27 10:47:24;;;;;;;1.75;0.95;;;25.10;66.20;;;;;;4164627;28;20067;-54
2023/04/27 10:49:47;;;;;;;2.95;1.00;;;25.10;66.10;;;;;;4167637;28;20425;-49
2023/04/27 10:52:09;;;;;;;1.40;0.85;;;25.10;66.10;;;;;;4159199;28;20045;-50
2023/04/27 10:54:32;;;;;;;2.08;0.80;;;25.10;66.10;;;;;;4163824;28;20091;-47
2023/04/27 10:57:15;;;;;;;0.73;0.63;;;25.10;66.10;;;;;;4162092;28;20046;-47
2023/04/27 10:59:54;;;;;;;2.05;0.88;;;25.10;66.10;;;;;;4165887;28;20110;-49
2023/04/27 11:02:25;;;;;;;2.13;1.02;;;25.20;66.00;;;;;;4164167;28;20033;-52
2023/04/27 11:04:47;;;;;;;1.58;0.90;;;25.10;65.90;;;;;;4167418;28;20048;-48
2023/04/27 11:07:11;;;;;;;1.90;0.80;;;25.20;66.00;;;;;;4165573;28;20171;-46
2023/04/27 11:09:35;;;;;;;1.55;0.70;;;25.20;66.00;;;;;;4166389;28;20446;-48
2023/04/27 11:11:57;;;;;;;1.73;0.98;;;25.20;66.00;;;;;;4165092;28;20040;-46
2023/04/27 11:14:20;;;;;;;3.78;0.55;;;25.10;65.90;;;;;;4168410;28;20032;-54
2023/04/27 11:16:47;;;;;;;1.27;0.80;;;25.10;66.00;;;;;;4157092;28;20076;-50
2023/04/27 11:19:09;;;;;;;2.13;1.00;;;25.10;66.10;;;;;;4171507;28;20520;-47
2023/04/27 11:21:32;;;;;;;2.58;0.82;;;25.10;66.10;;;;;;4174110;28;20137;-46
2023/04/27 11:23:55;;;;;;;1.38;0.70;;;25.10;66.10;;;;;;4170245;28;20029;-50
2023/04/27 11:26:20;;;;;;;2.80;0.80;;;25.10;66.20;;;;;;4169455;28;20041;-45
2023/04/27 11:28:57;;;;;;;1.50;0.98;;;25.10;66.40;;;;;;4156601;28;20121;-48
2023/04/27 11:31:20;;;;;;;3.88;1.00;;;25.10;66.70;;;;;;4166855;28;20136;-53
2023/04/27 11:33:51;;;;;;;1.77;0.73;;;25.10;66.50;;;;;;4168716;28;20847;-52
2023/04/27 11:36:21;;;;;;;0.98;0.63;;;25.10;66.60;;;;;;4174119;28;20041;-51
2023/04/27 11:38:43;;;;;;;2.53;0.73;;;25.00;66.70;;;;;;4174548;28;20033;-48
2023/04/27 11:41:06;;;;;;;1.42;0.63;;;25.10;66.80;;;;;;4170606;28;20127;-48
2023/04/27 11:43:29;;;;;;;1.50;0.52;;;25.10;66.80;;;;;;4169162;28;20501;-54
2023/04/27 11:45:52;;;;;;;5.20;0.80;;;25.10;66.80;;;;;;4175025;28;20493;-50
2023/04/27 11:48:15;;;;;;;3.20;0.80;;;25.10;66.80;;;;;;4172135;28;20109;-59
2023/04/27 11:50:38;;;;;;;4.43;1.10;;;25.10;66.70;;;;;;4170901;28;20147;-59
2023/04/27 11:53:01;;;;;;;2.33;0.65;;;25.10;66.70;;;;;;4166762;28;20071;-58
2023/04/27 11:55:23;;;;;;;2.15;0.70;;;25.00;66.60;;;;;;4174748;28;20053;-50
2023/04/27 11:57:46;;;;;;;1.20;0.50;;;25.00;66.70;;;;;;4156583;28;20114;-49
2023/04/27 12:00:13;;;;;;;3.00;0.70;;;25.00;66.70;;;;;;4173040;28;20033;-50
2023/04/27 12:02:36;;;;;;;3.20;0.80;;;25.00;66.70;;;;;;4168191;28;20033;-56
2023/04/27 12:04:59;;;;;;;3.63;0.73;;;25.00;66.90;;;;;;4170433;28;20033;-54
2023/04/27 12:07:21;;;;;;;10.30;1.02;;;25.00;67.00;;;;;;4170543;28;20404;-53
2023/04/27 12:09:44;;;;;;;3.95;0.88;;;25.00;67.00;;;;;;4169058;28;20052;-52
2023/04/27 12:12:07;;;;;;;3.60;0.80;;;25.00;67.10;;;;;;4174493;28;20576;-49
2023/04/27 12:14:30;;;;;;;6.53;1.10;;;25.00;67.10;;;;;;4173830;28;20146;-53
2023/04/27 12:16:52;;;;;;;1.85;0.80;;;25.00;67.20;;;;;;4167713;28;20143;-48
2023/04/27 12:19:14;;;;;;;3.10;0.70;;;25.00;67.10;;;;;;4171574;28;20048;-52
2023/04/27 12:21:37;;;;;;;5.32;0.85;;;25.00;67.00;;;;;;4173141;28;20131;-52
2023/04/27 12:23:59;;;;;;;2.60;0.75;;;25.00;67.10;;;;;;4171697;28;20072;-50
2023/04/27 12:26:22;;;;;;;4.43;0.85;;;25.00;67.10;;;;;;4167417;28;20038;-45
2023/04/27 12:28:44;;;;;;;8.35;1.70;;;25.00;67.20;;;;;;4150841;28;20034;-59